KPKB/PKB METAR and TAF weather

Enter ICAO airport designator
Station Type Date Time Source
KPKB METAR 2020/07/08 00:53 UTC NOAA

KPKB 080053Z 33005KT 8SM CLR 22/20 A3004 RMK AO2 SLP164 T02220200 $


Station Type Date Time Source
KPKB Decoded METAR 2020/07/08 00:53 UTC NOAA

MID-OHIO VALLEY RGNL AIRPORT, WV, United States (KPKB) 39-20N 81-27W
Jul 07, 2020 - 08:53 PM EDT / 2020.07.08 0053 UTC
Wind: from the NNW (330 degrees) at 6 MPH (5 KT):0
Visibility: 8 mile(s):0
Sky conditions: clear
Temperature: 72.0 F (22.2 C)
Dew Point: 68.0 F (20.0 C)
Relative Humidity: 87%
Pressure (altimeter): 30.04 in. Hg (1017 hPa)
ob: KPKB 080053Z 33005KT 8SM CLR 22/20 A3004 RMK AO2 SLP164 T02220200
cycle: 1

Station Type Date Time Source
KPKB TAF 2020/07/07 21:51 UTC NOAA

TAF
AMD KPKB 072047Z 0721/0818 VRB11G22KT P6SM -TSRA BKN050CB BKN110
FM072200 00000KT P6SM FEW100
FM080700 00000KT 5SM BR FEW100
FM081200 00000KT P6SM FEW045

Example: see airport list